createdAt,value
2022-10-09T00:01:44.114Z,99032.16
2022-10-09T00:04:13.300Z,99030.75
2022-10-09T00:06:44.110Z,99035.34
2022-10-09T00:09:13.445Z,99033.72
2022-10-09T00:11:42.306Z,99035.22
2022-10-09T00:14:11.060Z,99038.50
2022-10-09T00:16:40.364Z,99037.53
2022-10-09T00:19:09.224Z,99033.31
2022-10-09T00:21:37.862Z,99026.75
2022-10-09T00:24:08.744Z,99031.13
2022-10-09T00:26:38.090Z,99040.69
2022-10-09T00:29:07.778Z,99033.84
2022-10-09T00:31:36.384Z,99029.63
2022-10-09T00:34:06.001Z,99028.94
2022-10-09T00:36:34.573Z,99031.16
2022-10-09T00:39:03.595Z,99032.78
2022-10-09T00:41:34.677Z,99037.03
2022-10-09T00:44:25.057Z,99029.50
2022-10-09T00:46:54.528Z,99022.81
2022-10-09T00:49:30.183Z,99034.03
2022-10-09T00:52:05.127Z,99024.44
2022-10-09T00:54:38.216Z,99023.34
2022-10-09T00:57:09.366Z,99024.88
2022-10-09T00:59:39.356Z,99023.50
2022-10-09T01:02:09.344Z,99017.59
2022-10-09T01:04:39.362Z,99013.38
2022-10-09T01:07:31.120Z,99015.31
2022-10-09T01:10:10.658Z,99025.31
2022-10-09T01:12:52.403Z,99012.56
2022-10-09T01:15:30.201Z,99019.69
2022-10-09T01:18:08.654Z,99022.84
2022-10-09T01:20:49.374Z,99010.81
2022-10-09T01:23:45.187Z,99014.50
2022-10-09T01:26:42.446Z,99015.19
2022-10-09T01:29:15.429Z,99013.28
2022-10-09T01:31:50.574Z,99014.25
2022-10-09T01:34:22.423Z,99004.66
2022-10-09T01:36:53.662Z,99001.91
2022-10-09T01:39:25.329Z,99002.75
2022-10-09T01:41:56.354Z,99001.13
2022-10-09T01:44:30.081Z,99005.66
2022-10-09T01:47:00.097Z,98991.94
2022-10-09T01:49:44.191Z,99001.69
2022-10-09T01:52:28.264Z,98999.19
2022-10-09T01:55:18.127Z,98995.09
2022-10-09T01:57:55.255Z,98990.88
2022-10-09T02:00:26.790Z,98989.66
2022-10-09T02:02:59.942Z,98986.06
2022-10-09T02:05:32.501Z,98979.81
2022-10-09T02:08:02.518Z,98982.13
2022-10-09T02:10:36.023Z,98976.22
2022-10-09T02:13:06.090Z,98976.09
2022-10-09T02:15:48.502Z,98973.22
2022-10-09T02:18:24.378Z,98971.16
2022-10-09T02:21:01.866Z,98967.91
2022-10-09T02:23:32.810Z,98971.59
2022-10-09T02:26:01.444Z,98963.94
2022-10-09T02:28:31.730Z,98960.66
2022-10-09T02:31:12.853Z,98963.09
2022-10-09T02:33:42.350Z,98962.81
2022-10-09T02:36:11.813Z,98954.50
2022-10-09T02:38:40.597Z,98955.19
2022-10-09T02:41:09.735Z,98953.16
2022-10-09T02:43:39.437Z,98954.38
2022-10-09T02:46:10.849Z,98951.06
2022-10-09T02:48:40.739Z,98950.69
2022-10-09T02:51:10.593Z,98951.63
2022-10-09T02:53:39.400Z,98938.22
2022-10-09T02:56:08.848Z,98950.22
2022-10-09T02:58:38.017Z,98949.97
2022-10-09T03:01:09.094Z,98939.59
2022-10-09T03:03:38.368Z,98943.41
2022-10-09T03:06:11.366Z,98942.56
2022-10-09T03:08:54.105Z,98946.66
2022-10-09T03:11:26.062Z,98935.75
2022-10-09T03:13:56.326Z,98937.13
2022-10-09T03:16:28.485Z,98936.94
2022-10-09T03:18:58.624Z,98936.69
2022-10-09T03:21:30.100Z,98938.31
2022-10-09T03:23:58.930Z,98938.44
2022-10-09T03:26:29.720Z,98932.44
2022-10-09T03:28:58.488Z,98935.75
2022-10-09T03:34:17.718Z,98929.44
2022-10-09T03:36:46.850Z,98933.53
2022-10-09T03:39:16.492Z,98931.75
2022-10-09T03:41:45.709Z,98936.53
2022-10-09T03:44:14.552Z,98930.38
2022-10-09T03:46:44.915Z,98931.41
2022-10-09T03:49:13.812Z,98940.00
2022-10-09T03:51:42.820Z,98928.53
2022-10-09T03:54:12.451Z,98933.22
2022-10-09T03:56:42.223Z,98929.94
2022-10-09T03:59:12.263Z,98939.19
2022-10-09T04:01:41.297Z,98930.31
2022-10-09T04:04:11.366Z,98933.72
2022-10-09T04:06:40.441Z,98931.00
2022-10-09T04:09:10.927Z,98931.41
2022-10-09T04:11:40.501Z,98939.72
2022-10-09T04:14:11.247Z,98926.38
2022-10-09T04:16:39.906Z,98924.44
2022-10-09T04:19:08.796Z,98930.72
2022-10-09T04:21:38.845Z,98939.19
2022-10-09T04:24:09.050Z,98925.00
2022-10-09T04:26:37.967Z,98934.00
2022-10-09T04:29:09.432Z,98933.06
2022-10-09T04:31:38.719Z,98927.69
2022-10-09T04:34:07.975Z,98934.06
2022-10-09T04:36:39.164Z,98930.00
2022-10-09T04:39:09.037Z,98933.69
2022-10-09T04:41:39.296Z,98934.50
2022-10-09T04:44:08.404Z,98923.31
2022-10-09T04:46:37.762Z,98927.38
2022-10-09T04:49:08.663Z,98931.63
2022-10-09T04:51:39.304Z,98931.84
2022-10-09T04:54:08.646Z,98932.81
2022-10-09T04:56:39.111Z,98928.81
2022-10-09T04:59:08.706Z,98924.88
2022-10-09T05:01:38.635Z,98926.53
2022-10-09T05:04:07.993Z,98923.78
2022-10-09T05:06:41.075Z,98929.53
2022-10-09T05:09:11.858Z,98928.84
2022-10-09T05:11:42.802Z,98930.56
2022-10-09T05:14:12.766Z,98930.44
2022-10-09T05:17:08.458Z,98931.97
2022-10-09T05:19:35.038Z,98928.94
2022-10-09T05:22:06.151Z,98928.94
2022-10-09T05:24:36.520Z,98931.34
2022-10-09T05:27:07.034Z,98928.38
2022-10-09T05:29:35.975Z,98939.19
2022-10-09T05:32:04.810Z,98931.78
2022-10-09T05:34:36.949Z,98942.25
2022-10-09T05:37:08.284Z,98935.47
2022-10-09T05:39:38.343Z,98931.09
2022-10-09T05:42:07.540Z,98933.44
2022-10-09T05:44:36.059Z,98936.03
2022-10-09T05:47:07.557Z,98939.56
2022-10-09T05:49:39.093Z,98942.78
2022-10-09T05:52:09.746Z,98941.03
2022-10-09T05:54:38.268Z,98940.56
2022-10-09T05:57:07.409Z,98937.03
2022-10-09T05:59:35.963Z,98937.75
2022-10-09T06:02:05.410Z,98934.34
2022-10-09T06:04:34.720Z,98940.34
2022-10-09T06:07:04.993Z,98940.06
2022-10-09T06:09:35.083Z,98929.63
2022-10-09T06:12:05.524Z,98928.28
2022-10-09T06:14:34.228Z,98922.53
2022-10-09T06:17:02.820Z,98921.16
2022-10-09T06:19:31.546Z,98925.69
2022-10-09T06:22:00.119Z,98925.53
2022-10-09T06:24:29.741Z,98930.47
2022-10-09T06:27:02.159Z,98928.84
2022-10-09T06:29:34.570Z,98925.81
2022-10-09T06:32:04.316Z,98929.53
2022-10-09T06:34:33.274Z,98933.78
2022-10-09T06:37:02.527Z,98927.63
2022-10-09T06:39:31.990Z,98930.72
2022-10-09T06:42:04.221Z,98931.44
2022-10-09T06:44:33.695Z,98937.19
2022-10-09T06:47:02.993Z,98928.06
2022-10-09T06:49:32.113Z,98931.09
2022-10-09T06:52:00.997Z,98929.19
2022-10-09T06:54:29.656Z,98937.34
2022-10-09T06:56:58.659Z,98934.38
2022-10-09T06:59:29.220Z,98932.16
2022-10-09T07:01:58.077Z,98929.72
2022-10-09T07:04:28.171Z,98936.28
2022-10-09T07:06:57.098Z,98926.22
2022-10-09T07:09:26.023Z,98927.00
2022-10-09T07:11:54.574Z,98927.28
2022-10-09T07:14:23.923Z,98924.59
2022-10-09T07:16:54.744Z,98924.88
2022-10-09T07:19:24.544Z,98925.53
2022-10-09T07:21:54.315Z,98920.38
2022-10-09T07:24:25.540Z,98920.13
2022-10-09T07:26:56.220Z,98915.09
2022-10-09T07:29:25.892Z,98920.00
2022-10-09T07:31:56.446Z,98923.31
2022-10-09T07:34:26.577Z,98924.81
2022-10-09T07:36:56.440Z,98924.69
2022-10-09T07:39:25.021Z,98925.25
2022-10-09T07:41:54.099Z,98922.94
2022-10-09T07:44:23.099Z,98922.41
2022-10-09T07:46:51.990Z,98921.31
2022-10-09T07:49:22.720Z,98917.50
2022-10-09T07:51:51.754Z,98920.38
2022-10-09T07:54:20.719Z,98915.63
2022-10-09T07:56:49.381Z,98910.84
2022-10-09T07:59:18.766Z,98906.22
2022-10-09T08:01:47.384Z,98911.84
2022-10-09T08:04:16.104Z,98907.03
2022-10-09T08:06:46.914Z,98911.72
2022-10-09T08:09:15.622Z,98911.28
2022-10-09T08:11:44.724Z,98908.19
2022-10-09T08:14:19.147Z,98905.88
2022-10-09T08:16:48.980Z,98906.28
2022-10-09T08:19:17.616Z,98895.22
2022-10-09T08:21:47.513Z,98897.25
2022-10-09T08:24:15.980Z,98892.31
2022-10-09T08:26:46.067Z,98887.38
2022-10-09T08:29:16.541Z,98884.09
2022-10-09T08:31:45.039Z,98882.72
2022-10-09T08:34:13.759Z,98881.22
2022-10-09T08:36:42.419Z,98867.66
2022-10-09T08:39:15.566Z,98878.16
2022-10-09T08:41:48.183Z,98873.88
2022-10-09T08:44:53.751Z,98871.41
2022-10-09T08:47:28.498Z,98867.28
2022-10-09T08:50:06.159Z,98871.06
2022-10-09T08:52:49.139Z,98870.34
2022-10-09T08:55:26.228Z,98867.03
2022-10-09T08:57:58.555Z,98864.69
2022-10-09T09:00:41.598Z,98860.66
2022-10-09T09:03:43.569Z,98864.03
2022-10-09T09:06:23.692Z,98857.28
2022-10-09T09:09:02.268Z,98862.56
2022-10-09T09:11:47.411Z,98859.91
2022-10-09T09:14:46.237Z,98856.72
2022-10-09T09:17:27.475Z,98853.53
2022-10-09T09:20:14.088Z,98857.84
2022-10-09T09:22:48.683Z,98845.84
2022-10-09T09:25:24.203Z,98836.16
2022-10-09T09:28:00.045Z,98840.63
2022-10-09T09:30:35.389Z,98834.81
2022-10-09T09:33:17.799Z,98839.56
2022-10-09T09:35:59.773Z,98838.00
2022-10-09T09:38:28.316Z,98841.13
2022-10-09T09:40:57.051Z,98829.81
2022-10-09T09:43:28.381Z,98826.59
2022-10-09T09:45:59.979Z,98827.63
2022-10-09T09:48:37.212Z,98824.22
2022-10-09T09:51:27.998Z,98816.59
2022-10-09T09:54:00.963Z,98811.59
2022-10-09T09:57:06.773Z,98806.59
2022-10-09T09:59:43.110Z,98799.59
2022-10-09T10:02:15.804Z,98792.13
2022-10-09T10:04:57.196Z,98789.38
2022-10-09T10:07:31.923Z,98789.41
2022-10-09T10:10:14.921Z,98787.13
2022-10-09T10:12:46.336Z,98785.38
2022-10-09T10:15:25.708Z,98779.50
2022-10-09T10:18:03.270Z,98779.69
2022-10-09T10:20:35.203Z,98774.63
2022-10-09T10:23:04.951Z,98770.59
2022-10-09T10:25:35.542Z,98761.28
2022-10-09T10:28:16.788Z,98764.06
2022-10-09T10:30:48.717Z,98759.19
2022-10-09T10:33:24.193Z,98751.31
2022-10-09T10:35:57.335Z,98749.06
2022-10-09T10:38:33.627Z,98755.59
2022-10-09T10:41:15.711Z,98743.31
2022-10-09T10:43:48.434Z,98740.03
2022-10-09T10:46:29.585Z,98734.31
2022-10-09T10:49:00.575Z,98731.72
2022-10-09T10:52:07.143Z,98729.41
2022-10-09T10:54:41.711Z,98716.28
2022-10-09T10:57:16.852Z,98707.09
2022-10-09T10:59:58.136Z,98703.72
2022-10-09T11:02:54.502Z,98702.06
2022-10-09T11:05:37.616Z,98705.97
2022-10-09T11:08:36.147Z,98699.19
2022-10-09T11:11:13.172Z,98703.91
2022-10-09T11:13:56.637Z,98694.72
2022-10-09T11:16:44.600Z,98689.44
2022-10-09T11:20:03.294Z,98681.81
2022-10-09T11:23:03.788Z,98667.03
2022-10-09T11:25:43.731Z,98657.50
2022-10-09T11:28:20.017Z,98657.59
2022-10-09T11:30:56.743Z,98667.47
2022-10-09T11:33:36.125Z,98661.50
2022-10-09T11:36:15.895Z,98661.44
2022-10-09T11:38:48.463Z,98661.84
2022-10-09T11:41:18.037Z,98646.22
2022-10-09T11:44:17.170Z,98648.41
2022-10-09T11:46:53.590Z,98654.19
2022-10-09T11:49:28.596Z,98650.38
2022-10-09T11:52:05.413Z,98636.50
2022-10-09T11:54:35.530Z,98635.75
2022-10-09T11:57:07.073Z,98628.16
2022-10-09T11:59:42.481Z,98618.28
2022-10-09T12:02:29.122Z,98618.09
2022-10-09T12:04:58.103Z,98615.47
2022-10-09T12:07:36.597Z,98603.97
2022-10-09T12:10:10.611Z,98603.41
2022-10-09T12:12:39.487Z,98598.00
2022-10-09T12:15:29.454Z,98608.34
2022-10-09T12:17:58.319Z,98592.88
2022-10-09T12:20:29.538Z,98592.56
2022-10-09T12:23:25.774Z,98588.59
2022-10-09T12:25:51.406Z,98580.59
2022-10-09T12:28:29.554Z,98585.13
2022-10-09T12:31:02.426Z,98576.25
2022-10-09T12:33:38.117Z,98576.69
2022-10-09T12:36:15.385Z,98561.72
2022-10-09T12:38:46.123Z,98557.91
2022-10-09T12:41:22.166Z,98554.91
2022-10-09T12:43:53.429Z,98541.63
2022-10-09T12:46:32.268Z,98550.94
2022-10-09T12:49:04.910Z,98538.81
2022-10-09T12:51:36.228Z,98539.66
2022-10-09T12:54:12.744Z,98532.03
2022-10-09T12:56:41.516Z,98535.44
2022-10-09T12:59:14.248Z,98527.56
2022-10-09T13:01:44.676Z,98527.75
2022-10-09T13:04:29.580Z,98530.84
2022-10-09T13:07:02.419Z,98526.03
2022-10-09T13:09:39.429Z,98512.69
2022-10-09T13:12:17.703Z,98506.66
2022-10-09T13:14:53.787Z,98514.75
2022-10-09T13:20:26.738Z,98503.50
2022-10-09T13:22:59.008Z,98507.56
2022-10-09T13:25:36.359Z,98496.63
2022-10-09T13:28:05.735Z,98500.28
2022-10-09T13:30:34.562Z,98495.44
2022-10-09T13:33:03.256Z,98496.25
2022-10-09T13:35:32.035Z,98494.69
2022-10-09T13:38:00.493Z,98488.03
2022-10-09T13:40:30.376Z,98475.28
2022-10-09T13:43:04.250Z,98478.94
2022-10-09T13:45:32.995Z,98478.53
2022-10-09T13:48:01.680Z,98471.84
2022-10-09T13:50:30.173Z,98460.13
2022-10-09T13:53:00.235Z,98461.38
2022-10-09T13:55:30.617Z,98462.41
2022-10-09T13:57:59.176Z,98443.97
2022-10-09T14:00:28.474Z,98443.31
2022-10-09T14:02:57.474Z,98447.91
2022-10-09T14:05:27.490Z,98436.22
2022-10-09T14:07:56.793Z,98438.13
2022-10-09T14:10:25.303Z,98433.59
2022-10-09T14:12:55.199Z,98422.47
2022-10-09T14:15:24.006Z,98423.75
2022-10-09T14:17:53.476Z,98410.00
2022-10-09T14:20:25.151Z,98410.59
2022-10-09T14:22:53.576Z,98408.16
2022-10-09T14:25:22.036Z,98407.34
2022-10-09T14:27:50.509Z,98413.66
2022-10-09T14:30:20.548Z,98400.63
2022-10-09T14:32:50.057Z,98404.91
2022-10-09T14:35:21.541Z,98402.03
2022-10-09T14:37:50.419Z,98398.00
2022-10-09T14:40:19.051Z,98393.34
2022-10-09T14:42:47.774Z,98397.38
2022-10-09T14:45:17.230Z,98389.84
2022-10-09T14:47:47.085Z,98391.25
2022-10-09T14:50:15.601Z,98392.44
2022-10-09T14:52:44.769Z,98384.28
2022-10-09T14:55:13.264Z,98380.63
2022-10-09T14:57:41.701Z,98378.63
2022-10-09T15:00:11.896Z,98374.34
2022-10-09T15:05:11.221Z,98369.59
2022-10-09T15:07:39.722Z,98366.56
2022-10-09T15:10:09.885Z,98359.22
2022-10-09T15:12:38.354Z,98349.25
2022-10-09T15:15:09.597Z,98353.06
2022-10-09T15:17:38.117Z,98347.22
2022-10-09T15:20:07.597Z,98340.47
2022-10-09T15:22:37.535Z,98347.34
2022-10-09T15:25:08.334Z,98344.94
2022-10-09T15:27:36.799Z,98339.06
2022-10-09T15:30:08.081Z,98339.88
2022-10-09T15:32:36.622Z,98340.53
2022-10-09T15:35:08.038Z,98331.63
2022-10-09T15:37:37.982Z,98333.31
2022-10-09T15:40:07.529Z,98341.88
2022-10-09T15:42:37.006Z,98336.69
2022-10-09T15:45:06.977Z,98330.28
2022-10-09T15:47:50.395Z,98343.00
2022-10-09T15:50:19.976Z,98333.72
2022-10-09T15:52:49.986Z,98321.19
2022-10-09T15:55:18.743Z,98327.28
2022-10-09T15:57:47.221Z,98328.97
2022-10-09T16:00:16.633Z,98327.75
2022-10-09T16:02:45.099Z,98322.97
2022-10-09T16:05:13.575Z,98322.59
2022-10-09T16:07:42.034Z,98320.63
2022-10-09T16:10:12.999Z,98320.03
2022-10-09T16:12:41.462Z,98315.44
2022-10-09T16:15:11.139Z,98317.25
2022-10-09T16:17:39.594Z,98316.66
2022-10-09T16:20:11.067Z,98314.63
2022-10-09T16:22:39.452Z,98306.53
2022-10-09T16:25:09.490Z,98306.94
2022-10-09T16:27:39.409Z,98304.72
2022-10-09T16:33:07.058Z,98321.09
2022-10-09T16:35:39.019Z,98306.53
2022-10-09T16:38:07.866Z,98309.56
2022-10-09T16:41:00.893Z,98311.78
2022-10-09T16:43:26.976Z,98316.38
2022-10-09T16:45:55.515Z,98322.63
2022-10-09T16:48:24.131Z,98317.56
2022-10-09T16:50:52.602Z,98320.16
2022-10-09T16:53:21.076Z,98322.16
2022-10-09T16:55:49.972Z,98324.16
2022-10-09T16:58:18.435Z,98328.94
2022-10-09T17:00:48.504Z,98334.78
2022-10-09T17:03:17.349Z,98333.72
2022-10-09T17:05:45.835Z,98330.50
2022-10-09T17:08:16.175Z,98336.91
2022-10-09T17:10:45.024Z,98326.75
2022-10-09T17:13:13.756Z,98337.03
2022-10-09T17:15:43.035Z,98337.59
2022-10-09T17:18:12.908Z,98336.75
2022-10-09T17:20:41.565Z,98340.97
2022-10-09T17:23:10.080Z,98336.28
2022-10-09T17:25:42.218Z,98338.28
2022-10-09T17:28:10.939Z,98331.81
2022-10-09T17:30:40.787Z,98335.97
2022-10-09T17:33:10.137Z,98338.81
2022-10-09T17:35:43.224Z,98338.94
2022-10-09T17:38:11.842Z,98336.84
2022-10-09T17:40:43.176Z,98341.47
2022-10-09T17:43:13.029Z,98337.59
2022-10-09T17:45:46.985Z,98340.00
2022-10-09T17:48:15.581Z,98344.81
2022-10-09T17:50:53.819Z,98337.31
2022-10-09T17:53:23.538Z,98330.78
2022-10-09T17:55:54.174Z,98334.94
2022-10-09T17:58:24.878Z,98328.44
2022-10-09T18:00:53.473Z,98331.00
2022-10-09T18:03:22.288Z,98330.84
2022-10-09T18:05:53.196Z,98332.16
2022-10-09T18:08:22.438Z,98332.75
2022-10-09T18:10:59.354Z,98327.91
2022-10-09T18:13:27.786Z,98336.94
2022-10-09T18:15:56.591Z,98331.81
2022-10-09T18:18:25.124Z,98329.94
2022-10-09T18:20:54.921Z,98328.31
2022-10-09T18:23:23.473Z,98328.06
2022-10-09T18:25:51.955Z,98326.81
2022-10-09T18:28:20.644Z,98319.31
2022-10-09T18:30:49.671Z,98318.06
2022-10-09T18:33:18.226Z,98317.72
2022-10-09T18:35:47.495Z,98306.00
2022-10-09T18:38:17.866Z,98318.66
2022-10-09T18:40:46.376Z,98318.56
2022-10-09T18:43:14.975Z,98317.75
2022-10-09T18:45:48.137Z,98316.94
2022-10-09T18:48:18.441Z,98322.09
2022-10-09T18:50:47.081Z,98310.63
2022-10-09T18:53:17.177Z,98305.41
2022-10-09T18:55:46.236Z,98308.19
2022-10-09T18:58:16.598Z,98305.13
2022-10-09T19:00:45.182Z,98314.88
2022-10-09T19:03:13.684Z,98315.03
2022-10-09T19:05:42.207Z,98307.56
2022-10-09T19:08:10.958Z,98312.69
2022-10-09T19:10:40.937Z,98302.78
2022-10-09T19:13:09.598Z,98308.78
2022-10-09T19:15:38.235Z,98309.50
2022-10-09T19:18:07.311Z,98312.28
2022-10-09T19:20:39.658Z,98310.31
2022-10-09T19:23:08.536Z,98316.16
2022-10-09T19:25:37.065Z,98307.88
2022-10-09T19:28:07.042Z,98307.38
2022-10-09T19:30:35.587Z,98304.22
2022-10-09T19:33:04.340Z,98304.28
2022-10-09T19:35:33.005Z,98304.63
2022-10-09T19:38:03.143Z,98303.81
2022-10-09T19:40:31.941Z,98308.56
2022-10-09T19:43:00.828Z,98304.72
2022-10-09T19:45:31.223Z,98301.44
2022-10-09T19:48:00.321Z,98298.56
2022-10-09T19:50:29.683Z,98290.44
2022-10-09T19:52:59.185Z,98298.28
2022-10-09T19:55:30.838Z,98298.16
2022-10-09T19:58:00.027Z,98296.38
2022-10-09T20:00:31.065Z,98297.41
2022-10-09T20:02:59.642Z,98294.63
2022-10-09T20:05:28.586Z,98299.09
2022-10-09T20:07:57.207Z,98294.56
2022-10-09T20:10:25.676Z,98287.06
2022-10-09T20:12:54.342Z,98287.06
2022-10-09T20:15:23.441Z,98293.09
2022-10-09T20:17:55.107Z,98285.31
2022-10-09T20:20:23.680Z,98287.13
2022-10-09T20:22:52.771Z,98282.25
2022-10-09T20:25:24.625Z,98286.22
2022-10-09T20:27:53.667Z,98290.78
2022-10-09T20:30:22.365Z,98282.97
2022-10-09T20:32:58.053Z,98278.13
2022-10-09T20:35:27.783Z,98282.19
2022-10-09T20:37:56.586Z,98275.69
2022-10-09T20:40:25.327Z,98280.56
2022-10-09T20:42:54.081Z,98285.34
2022-10-09T20:45:22.974Z,98285.34
2022-10-09T20:47:53.396Z,98284.06
2022-10-09T20:50:22.072Z,98284.25
2022-10-09T20:52:50.967Z,98282.47
2022-10-09T20:55:20.543Z,98285.78
2022-10-09T20:57:52.966Z,98280.56
2022-10-09T21:00:24.199Z,98281.69
2022-10-09T21:02:54.541Z,98285.13
2022-10-09T21:05:26.159Z,98282.22
2022-10-09T21:07:54.999Z,98279.28
2022-10-09T21:10:23.759Z,98276.69
2022-10-09T21:12:52.615Z,98277.53
2022-10-09T21:15:22.996Z,98283.22
2022-10-09T21:17:53.178Z,98284.56
2022-10-09T21:20:22.138Z,98278.88
2022-10-09T21:22:51.232Z,98279.03
2022-10-09T21:25:20.246Z,98278.41
2022-10-09T21:27:49.574Z,98271.53
2022-10-09T21:30:18.756Z,98277.91
2022-10-09T21:32:47.565Z,98279.72
2022-10-09T21:35:18.225Z,98275.31
2022-10-09T21:37:47.164Z,98280.41
2022-10-09T21:40:15.884Z,98281.03
2022-10-09T21:42:44.864Z,98282.34
2022-10-09T21:45:13.766Z,98280.06
2022-10-09T21:47:42.729Z,98275.88
2022-10-09T21:50:12.193Z,98282.03
2022-10-09T21:52:43.212Z,98270.91
2022-10-09T21:55:12.085Z,98272.75
2022-10-09T21:57:40.847Z,98263.16
2022-10-09T22:00:13.522Z,98261.69
2022-10-09T22:02:43.773Z,98263.16
2022-10-09T22:05:12.730Z,98255.97
2022-10-09T22:07:43.438Z,98268.69
2022-10-09T22:10:13.941Z,98259.72
2022-10-09T22:12:42.716Z,98260.88
2022-10-09T22:15:12.246Z,98257.78
2022-10-09T22:17:40.895Z,98264.16
2022-10-09T22:20:11.201Z,98260.75
2022-10-09T22:22:39.807Z,98260.88
2022-10-09T22:25:13.091Z,98256.34
2022-10-09T22:27:41.723Z,98257.94
2022-10-09T22:30:12.196Z,98250.50
2022-10-09T22:32:40.831Z,98262.84
2022-10-09T22:35:10.810Z,98255.22
2022-10-09T22:37:39.429Z,98251.47
2022-10-09T22:40:12.276Z,98255.22
2022-10-09T22:42:40.937Z,98251.81
2022-10-09T22:45:13.308Z,98253.75
2022-10-09T22:47:41.879Z,98253.44
2022-10-09T22:50:11.359Z,98256.38
2022-10-09T22:52:40.289Z,98248.91
2022-10-09T22:55:11.198Z,98244.66
2022-10-09T22:57:39.885Z,98245.00
2022-10-09T23:00:10.091Z,98238.50
2022-10-09T23:02:38.690Z,98241.56
2022-10-09T23:05:08.017Z,98245.47
2022-10-09T23:07:37.029Z,98240.44
2022-10-09T23:10:06.527Z,98245.16
2022-10-09T23:12:37.077Z,98237.50
2022-10-09T23:15:08.493Z,98235.56
2022-10-09T23:17:37.089Z,98239.13
2022-10-09T23:20:07.411Z,98241.25
2022-10-09T23:22:36.007Z,98239.81
2022-10-09T23:25:05.009Z,98237.69
2022-10-09T23:27:34.482Z,98232.13
2022-10-09T23:30:04.569Z,98230.84
2022-10-09T23:32:33.443Z,98222.72
2022-10-09T23:35:01.981Z,98238.50
2022-10-09T23:37:30.390Z,98229.72
2022-10-09T23:39:58.832Z,98227.59
2022-10-09T23:42:27.345Z,98237.19
2022-10-09T23:44:57.023Z,98225.31
2022-10-09T23:47:26.974Z,98224.66
2022-10-09T23:49:56.600Z,98223.53
2022-10-09T23:52:26.178Z,98220.59
2022-10-09T23:54:55.175Z,98221.59
2022-10-09T23:57:24.368Z,98229.53
2022-10-09T23:59:53.570Z,98229.38
